Time;durP1;ratioP1;P1;durP2;ratioP2;P2;SDS_P1;SDS_P2;PMS_P1;PMS_P2;Temp;Humidity;BMP_temperature;BMP_pressure;BME280_temperature;BME280_humidity;BME280_pressure;Samples;Min_cycle;Max_cycle;Signal;HPM_P1;HPM_P2
2022/12/24 00:01:36;;;;;;;14.40;3.22;;;11.30;75.50;;;;;;5070343;28;20525;-81
2022/12/24 00:04:20;;;;;;;15.85;3.25;;;11.30;75.50;;;;;;5078763;28;20074;-81
2022/12/24 00:07:05;;;;;;;9.75;2.75;;;11.30;76.10;;;;;;5060903;28;20075;-81
2022/12/24 00:09:49;;;;;;;13.80;2.83;;;11.30;75.60;;;;;;5057460;28;20039;-81
2022/12/24 00:12:35;;;;;;;14.05;3.63;;;11.30;75.60;;;;;;5066365;28;20048;-81
2022/12/24 00:15:19;;;;;;;15.15;3.67;;;11.30;75.60;;;;;;5060099;28;20051;-81
2022/12/24 00:18:04;;;;;;;10.85;2.78;;;11.30;75.70;;;;;;5067994;28;20561;-80
2022/12/24 00:20:49;;;;;;;12.65;2.85;;;11.30;75.70;;;;;;5065731;28;20063;-81
2022/12/24 00:23:34;;;;;;;14.00;4.15;;;11.20;75.60;;;;;;5048759;28;20039;-81
2022/12/24 00:26:18;;;;;;;11.73;3.72;;;11.30;75.80;;;;;;5073797;28;20162;-82
2022/12/24 00:29:03;;;;;;;14.70;3.00;;;11.30;75.80;;;;;;5063513;28;20032;-81
2022/12/24 00:31:47;;;;;;;13.00;3.80;;;11.30;75.80;;;;;;5063186;28;20083;-81
2022/12/24 00:34:33;;;;;;;15.02;3.92;;;11.30;75.80;;;;;;5057970;28;20047;-80
2022/12/24 00:37:17;;;;;;;12.50;3.05;;;11.30;75.80;;;;;;5058510;28;20108;-80
2022/12/24 00:40:02;;;;;;;15.05;3.38;;;11.30;75.80;;;;;;5046947;28;20051;-81
2022/12/24 00:42:46;;;;;;;12.23;3.40;;;11.30;75.80;;;;;;5051561;28;20051;-81
2022/12/24 00:45:31;;;;;;;10.35;2.90;;;11.30;75.80;;;;;;5047875;28;20039;-81
2022/12/24 00:48:16;;;;;;;9.73;3.17;;;11.30;75.80;;;;;;5046208;28;20043;-81
2022/12/24 00:51:01;;;;;;;9.27;2.50;;;11.40;75.90;;;;;;5047838;28;20542;-81
2022/12/24 00:53:47;;;;;;;14.43;4.10;;;11.40;75.90;;;;;;5037437;28;20420;-82
2022/12/24 00:56:33;;;;;;;14.15;3.97;;;11.40;75.90;;;;;;5048993;28;20098;-81
2022/12/24 00:59:19;;;;;;;11.48;3.05;;;11.30;75.70;;;;;;5043514;28;20076;-81
2022/12/24 01:02:04;;;;;;;14.10;4.65;;;11.30;75.70;;;;;;5037372;28;20096;-80
2022/12/24 01:08:02;;;;;;;11.95;3.55;;;11.30;75.70;;;;;;5042224;28;20418;-80
2022/12/24 01:10:46;;;;;;;14.82;4.38;;;11.30;75.80;;;;;;5050298;28;20090;-79
2022/12/24 01:13:31;;;;;;;11.23;3.35;;;11.30;75.80;;;;;;5044303;28;20079;-80
2022/12/24 01:16:18;;;;;;;12.90;3.00;;;11.30;75.80;;;;;;5055751;28;20044;-80
2022/12/24 01:19:03;;;;;;;15.27;3.50;;;11.30;75.80;;;;;;5056337;28;20049;-82
2022/12/24 01:21:47;;;;;;;13.95;3.00;;;11.30;75.80;;;;;;5066355;28;20056;-79
2022/12/24 01:24:32;;;;;;;15.20;3.42;;;11.30;75.80;;;;;;5073349;28;20047;-80
2022/12/24 01:27:17;;;;;;;11.35;2.85;;;11.30;75.80;;;;;;5069132;28;20067;-80
2022/12/24 01:30:02;;;;;;;10.02;2.63;;;11.30;75.80;;;;;;5047996;28;20318;-79
2022/12/24 01:32:47;;;;;;;11.52;3.55;;;11.20;75.70;;;;;;5060761;28;20127;-81
2022/12/24 01:35:31;;;;;;;9.25;3.10;;;11.30;75.90;;;;;;5046787;28;20309;-80
2022/12/24 01:38:17;;;;;;;11.90;3.28;;;11.20;75.70;;;;;;5058887;28;20040;-80
2022/12/24 01:44:17;;;;;;;10.93;2.83;;;11.20;75.70;;;;;;5063514;28;20320;-81
2022/12/24 01:47:26;;;;;;;12.80;3.42;;;11.20;75.70;;;;;;5060333;28;20116;-81
2022/12/24 01:50:15;;;;;;;9.85;2.38;;;11.10;75.50;;;;;;5066205;28;20087;-81
2022/12/24 01:53:00;;;;;;;12.98;3.50;;;11.10;75.50;;;;;;5059245;28;20052;-81
2022/12/24 01:55:45;;;;;;;17.75;3.65;;;11.10;76.10;;;;;;5072346;28;20573;-80
2022/12/24 01:58:32;;;;;;;10.75;2.38;;;11.00;75.40;;;;;;5068532;28;20171;-79
2022/12/24 02:01:17;;;;;;;13.27;2.85;;;11.10;75.60;;;;;;5074153;28;20043;-79
2022/12/24 02:04:15;;;;;;;12.77;3.30;;;11.00;75.40;;;;;;5051222;28;20039;-80
2022/12/24 02:07:00;;;;;;;15.95;3.03;;;11.00;75.50;;;;;;5058989;28;20051;-80
2022/12/24 02:09:45;;;;;;;13.02;4.75;;;11.00;75.50;;;;;;5063043;28;20044;-80
2022/12/24 02:12:34;;;;;;;12.18;2.47;;;10.90;75.30;;;;;;5062829;28;20050;-79
2022/12/24 02:15:20;;;;;;;15.68;4.55;;;11.00;75.60;;;;;;5047111;28;20437;-79
2022/12/24 02:18:13;;;;;;;9.05;2.35;;;11.00;75.60;;;;;;5072072;28;20036;-80
2022/12/24 02:21:23;;;;;;;11.35;2.95;;;10.90;75.40;;;;;;5071351;28;20086;-80
2022/12/24 02:24:32;;;;;;;14.00;3.20;;;10.90;75.40;;;;;;5032307;28;20102;-80
2022/12/24 02:27:31;;;;;;;12.95;2.55;;;10.90;75.30;;;;;;5070416;28;20066;-81
2022/12/24 02:30:20;;;;;;;12.73;2.50;;;10.90;75.40;;;;;;5052418;28;20040;-81
2022/12/24 02:33:22;;;;;;;11.10;3.00;;;10.80;75.20;;;;;;5042864;28;20091;-82
2022/12/24 02:36:12;;;;;;;10.38;2.47;;;10.80;75.20;;;;;;5052825;28;20044;-83
2022/12/24 02:39:05;;;;;;;15.65;4.10;;;10.80;75.20;;;;;;5055417;28;20044;-83
2022/12/24 02:42:05;;;;;;;13.27;3.42;;;10.80;75.20;;;;;;5053298;28;20043;-82
2022/12/24 02:45:15;;;;;;;12.75;2.88;;;10.80;75.20;;;;;;5022862;28;20111;-82
2022/12/24 02:48:00;;;;;;;11.35;2.20;;;10.80;75.30;;;;;;5060927;28;20064;-83
2022/12/24 02:51:07;;;;;;;12.32;3.45;;;10.70;75.10;;;;;;5060263;28;20099;-81
2022/12/24 02:53:51;;;;;;;12.52;2.20;;;10.70;75.20;;;;;;5054689;28;20063;-82
2022/12/24 02:57:00;;;;;;;11.25;2.70;;;10.70;75.20;;;;;;5050203;28;20060;-81
2022/12/24 03:00:11;;;;;;;11.82;2.70;;;10.60;75.10;;;;;;5061388;28;20055;-80
2022/12/24 03:03:06;;;;;;;13.05;3.35;;;10.60;75.10;;;;;;5040400;28;20041;-81
2022/12/24 03:06:08;;;;;;;7.45;2.53;;;10.60;75.10;;;;;;5055276;28;20087;-80
2022/12/24 03:09:16;;;;;;;13.10;3.20;;;10.60;75.10;;;;;;5060037;28;20082;-79
2022/12/24 03:12:06;;;;;;;11.32;2.50;;;10.60;75.10;;;;;;5056712;28;20118;-82
2022/12/24 03:14:52;;;;;;;13.25;2.67;;;10.60;75.10;;;;;;5064531;28;20063;-82
2022/12/24 03:17:40;;;;;;;13.27;2.63;;;10.60;75.10;;;;;;5042038;28;20099;-80
2022/12/24 03:20:33;;;;;;;15.32;3.15;;;10.60;75.10;;;;;;5056576;28;20044;-81
2022/12/24 03:23:18;;;;;;;11.65;3.90;;;10.60;75.10;;;;;;5046882;28;20142;-80
2022/12/24 03:26:08;;;;;;;16.67;3.30;;;10.60;75.10;;;;;;5050909;28;20047;-83
2022/12/24 03:28:52;;;;;;;11.25;2.75;;;10.50;74.90;;;;;;5053725;28;20130;-81
2022/12/24 03:31:44;;;;;;;9.18;2.47;;;10.50;74.90;;;;;;5064562;28;20367;-81
2022/12/24 03:34:30;;;;;;;10.20;2.42;;;10.50;75.00;;;;;;5052805;28;20499;-80
2022/12/24 03:37:14;;;;;;;9.73;2.15;;;10.50;75.00;;;;;;5060329;28;20048;-80
2022/12/24 03:39:59;;;;;;;13.40;2.38;;;10.50;75.00;;;;;;5072815;28;20043;-80
2022/12/24 03:42:44;;;;;;;12.02;2.50;;;10.40;74.90;;;;;;5058896;28;20048;-82
2022/12/24 03:45:29;;;;;;;14.75;3.58;;;10.40;74.90;;;;;;5051380;28;20095;-82
2022/12/24 03:48:14;;;;;;;14.50;3.00;;;10.40;75.00;;;;;;5049134;28;20063;-81
2022/12/24 03:50:58;;;;;;;14.05;2.92;;;10.30;74.80;;;;;;5060410;28;20114;-82
2022/12/24 03:53:43;;;;;;;13.52;2.35;;;10.30;74.80;;;;;;5049328;28;20056;-81
2022/12/24 03:56:29;;;;;;;11.57;3.05;;;10.30;74.90;;;;;;5052791;28;20047;-80
2022/12/24 03:59:13;;;;;;;15.15;3.67;;;10.20;74.70;;;;;;5055447;28;20087;-81
2022/12/24 04:01:58;;;;;;;10.90;2.28;;;10.20;74.80;;;;;;5042996;28;20097;-81
2022/12/24 04:04:43;;;;;;;11.50;5.00;;;10.10;74.60;;;;;;5045184;28;20133;-81
2022/12/24 04:07:27;;;;;;;12.07;3.70;;;10.10;74.70;;;;;;5049315;28;20052;-81
2022/12/24 04:10:14;;;;;;;11.40;2.97;;;10.10;74.70;;;;;;5053306;28;20444;-81
2022/12/24 04:12:58;;;;;;;14.02;2.53;;;10.00;74.60;;;;;;5061285;28;20109;-80
2022/12/24 04:15:43;;;;;;;12.48;3.28;;;10.00;74.70;;;;;;5050328;28;20111;-81
2022/12/24 04:18:29;;;;;;;14.15;3.28;;;10.00;74.70;;;;;;5049244;28;20094;-80
2022/12/24 04:21:13;;;;;;;8.43;2.65;;;10.00;74.70;;;;;;5048812;28;20621;-80
2022/12/24 04:23:57;;;;;;;9.45;2.20;;;9.90;74.60;;;;;;5046389;28;20106;-80
2022/12/24 04:26:42;;;;;;;11.45;3.05;;;9.90;74.70;;;;;;5049594;28;20040;-80
2022/12/24 04:29:26;;;;;;;20.30;4.07;;;9.90;74.60;;;;;;5041129;28;20075;-81
2022/12/24 04:32:11;;;;;;;16.48;3.88;;;9.80;74.50;;;;;;5049511;28;20606;-80
2022/12/24 04:34:56;;;;;;;12.30;2.80;;;9.80;74.60;;;;;;5034065;28;20051;-80
2022/12/24 04:37:41;;;;;;;9.90;2.80;;;9.80;74.60;;;;;;5052755;28;20074;-81
2022/12/24 04:40:25;;;;;;;14.40;3.72;;;9.80;74.60;;;;;;5051694;28;20393;-81
2022/12/24 04:43:10;;;;;;;10.50;2.65;;;9.70;74.40;;;;;;5041565;28;20039;-82
2022/12/24 04:46:02;;;;;;;11.25;3.65;;;9.70;74.50;;;;;;5050529;28;20044;-81
2022/12/24 04:48:50;;;;;;;10.45;2.25;;;9.60;74.40;;;;;;5053289;28;20087;-81
2022/12/24 04:51:34;;;;;;;15.32;3.45;;;9.60;74.90;;;;;;5049982;28;20481;-81
2022/12/24 04:54:19;;;;;;;9.65;2.53;;;9.60;74.40;;;;;;5048325;28;20393;-81
2022/12/24 04:57:04;;;;;;;10.52;2.47;;;9.50;74.30;;;;;;5045649;28;20087;-81
2022/12/24 04:59:48;;;;;;;14.02;3.60;;;9.50;74.30;;;;;;5037837;28;20079;-81
2022/12/24 05:02:33;;;;;;;16.80;2.70;;;9.40;74.20;;;;;;5047687;28;20044;-81
2022/12/24 05:05:18;;;;;;;13.93;2.47;;;9.40;74.20;;;;;;5052303;28;20056;-81
2022/12/24 05:08:02;;;;;;;10.40;2.55;;;9.40;74.20;;;;;;5041702;28;20075;-80
2022/12/24 05:10:55;;;;;;;14.32;3.95;;;9.30;74.10;;;;;;5049923;28;20048;-81
2022/12/24 05:13:40;;;;;;;9.80;3.20;;;9.30;74.10;;;;;;5057488;28;20531;-81
2022/12/24 05:16:25;;;;;;;12.45;2.60;;;9.30;74.10;;;;;;5057063;28;20111;-81
2022/12/24 05:19:10;;;;;;;12.45;2.40;;;9.20;74.00;;;;;;5060696;28;20068;-81
2022/12/24 05:28:02;;;;;;;12.88;2.45;;;9.10;73.90;;;;;;5072159;28;20086;-81
2022/12/24 05:30:47;;;;;;;9.82;2.35;;;9.10;73.90;;;;;;5050998;28;20304;-80
2022/12/24 05:33:31;;;;;;;8.52;2.15;;;9.00;73.80;;;;;;5041946;28;20048;-79
2022/12/24 05:36:16;;;;;;;12.35;3.25;;;9.00;73.80;;;;;;5044714;28;20079;-80
2022/12/24 05:39:01;;;;;;;15.63;2.70;;;9.00;73.90;;;;;;5049265;28;20048;-80
2022/12/24 05:41:46;;;;;;;14.38;2.85;;;9.00;73.90;;;;;;5048312;28;20557;-80
2022/12/24 05:44:32;;;;;;;15.32;3.65;;;8.90;73.80;;;;;;5046476;28;20060;-80
2022/12/24 05:47:18;;;;;;;10.82;2.60;;;8.90;73.80;;;;;;5047637;28;20044;-80
2022/12/24 05:50:04;;;;;;;12.35;3.25;;;8.90;73.90;;;;;;5037289;28;20218;-82
2022/12/24 05:52:48;;;;;;;9.75;3.78;;;8.80;73.70;;;;;;5051122;28;20055;-80
2022/12/24 05:55:33;;;;;;;11.30;2.80;;;8.90;73.90;;;;;;5057955;28;20044;-81
2022/12/24 05:58:18;;;;;;;11.90;2.80;;;8.80;73.70;;;;;;5051137;28;20158;-80
2022/12/24 06:01:05;;;;;;;14.88;2.53;;;8.80;73.80;;;;;;5054075;28;20072;-80
2022/12/24 06:03:50;;;;;;;11.07;2.88;;;8.70;73.60;;;;;;5052557;28;20048;-79
2022/12/24 06:06:34;;;;;;;10.55;2.15;;;8.70;73.60;;;;;;5052228;28;20048;-84
2022/12/24 06:09:19;;;;;;;10.35;2.13;;;8.70;73.70;;;;;;5048325;28;20040;-81
2022/12/24 06:12:04;;;;;;;12.00;2.95;;;8.70;73.70;;;;;;5050135;28;20064;-82
2022/12/24 06:14:49;;;;;;;8.48;2.15;;;8.70;73.70;;;;;;5060189;28;20051;-83
2022/12/24 06:17:33;;;;;;;10.52;2.15;;;8.60;73.60;;;;;;5060873;28;20043;-88
2022/12/24 06:20:18;;;;;;;7.75;1.77;;;8.60;73.60;;;;;;5071934;28;20048;-90
2022/12/24 06:23:03;;;;;;;16.30;3.88;;;8.60;73.70;;;;;;5064213;28;20170;-94
2022/12/24 06:25:48;;;;;;;10.52;2.65;;;8.60;73.70;;;;;;5080589;28;20112;-87
2022/12/24 06:28:35;;;;;;;12.02;3.25;;;8.50;73.50;;;;;;5075589;28;20083;-92
2022/12/24 06:31:21;;;;;;;9.88;2.55;;;8.50;73.50;;;;;;5054630;28;20044;-90
2022/12/24 06:34:06;;;;;;;15.63;1.90;;;8.50;73.50;;;;;;5048643;28;20068;-95
2022/12/24 06:36:51;;;;;;;10.15;2.97;;;8.40;73.40;;;;;;5050937;28;20285;-87
2022/12/24 06:39:37;;;;;;;14.10;3.15;;;8.40;73.40;;;;;;5052748;28;20319;-79
2022/12/24 06:42:23;;;;;;;11.88;2.63;;;8.40;73.50;;;;;;5060773;28;20051;-79
2022/12/24 06:45:09;;;;;;;12.25;2.20;;;8.40;73.40;;;;;;5043245;28;20120;-85
2022/12/24 06:47:53;;;;;;;9.88;2.63;;;8.30;73.30;;;;;;5054818;28;20096;-93
2022/12/24 06:50:38;;;;;;;12.55;3.20;;;8.30;73.30;;;;;;5051070;28;20067;-84
2022/12/24 06:53:23;;;;;;;14.38;2.67;;;8.30;73.40;;;;;;5058679;28;20056;-90
2022/12/24 06:56:10;;;;;;;34.28;5.97;;;8.30;73.50;;;;;;5050669;28;20361;-88
2022/12/24 06:58:55;;;;;;;9.48;2.50;;;8.40;73.70;;;;;;5044826;28;20105;-88
2022/12/24 07:01:39;;;;;;;10.88;3.22;;;8.40;73.80;;;;;;5046793;28;20112;-85
2022/12/24 07:04:24;;;;;;;9.57;2.22;;;8.50;73.90;;;;;;5050484;28;20103;-79
2022/12/24 07:07:09;;;;;;;19.92;2.78;;;8.50;73.90;;;;;;5055262;28;20032;-81
2022/12/24 07:09:55;;;;;;;13.20;3.10;;;8.50;74.00;;;;;;5041912;28;20513;-77
2022/12/24 07:12:39;;;;;;;20.70;3.90;;;8.60;74.60;;;;;;5048636;28;20039;-79
2022/12/24 07:15:24;;;;;;;19.15;3.13;;;8.70;75.00;;;;;;5047912;28;20079;-89
2022/12/24 07:18:08;;;;;;;13.60;2.70;;;9.00;75.30;;;;;;5061870;28;20032;-77
2022/12/24 07:20:53;;;;;;;13.88;3.30;;;9.10;75.40;;;;;;5060411;28;20039;-80
2022/12/24 07:23:38;;;;;;;11.52;2.65;;;9.30;75.60;;;;;;5035216;28;20522;-80
2022/12/24 07:26:22;;;;;;;17.15;3.35;;;9.40;75.60;;;;;;5065455;28;20459;-80
2022/12/24 07:29:07;;;;;;;7.60;2.50;;;9.50;75.50;;;;;;5039610;28;20102;-80
2022/12/24 07:31:52;;;;;;;11.35;2.45;;;9.50;75.40;;;;;;5049439;28;20071;-82
2022/12/24 07:34:38;;;;;;;10.82;2.97;;;9.50;75.50;;;;;;5037637;28;20043;-82
2022/12/24 07:37:23;;;;;;;17.85;4.95;;;9.40;75.60;;;;;;5035260;28;20080;-76
2022/12/24 07:40:08;;;;;;;10.13;2.17;;;9.50;76.10;;;;;;5037703;28;20474;-76
2022/12/24 07:42:53;;;;;;;12.57;2.72;;;9.60;76.40;;;;;;5040614;28;20036;-78
2022/12/24 07:45:38;;;;;;;11.95;3.72;;;9.60;76.40;;;;;;5031320;28;20068;-77
2022/12/24 07:48:24;;;;;;;13.23;2.58;;;9.70;76.60;;;;;;5042101;28;20102;-77
2022/12/24 07:51:08;;;;;;;12.23;2.78;;;9.70;76.60;;;;;;5042833;28;20056;-76
2022/12/24 07:53:53;;;;;;;8.60;2.90;;;9.70;76.50;;;;;;5040687;28;20458;-76
2022/12/24 07:56:38;;;;;;;9.32;2.53;;;9.80;76.70;;;;;;5032483;28;20056;-76
2022/12/24 07:59:23;;;;;;;19.67;3.15;;;9.80;76.70;;;;;;5043484;28;20591;-77
2022/12/24 08:02:12;;;;;;;11.20;2.67;;;9.80;76.60;;;;;;5027073;28;20052;-75
2022/12/24 08:04:57;;;;;;;15.65;3.40;;;9.80;76.60;;;;;;5033767;28;20393;-77
2022/12/24 08:07:42;;;;;;;12.52;3.60;;;9.80;76.60;;;;;;5029032;28;20126;-77
2022/12/24 08:10:26;;;;;;;9.32;2.28;;;9.80;76.50;;;;;;5038579;28;20040;-76
2022/12/24 08:13:12;;;;;;;11.50;3.20;;;9.80;76.50;;;;;;5031485;28;20166;-74
2022/12/24 08:15:57;;;;;;;11.65;2.78;;;9.80;76.50;;;;;;5026573;28;20060;-80
2022/12/24 08:18:42;;;;;;;13.63;3.75;;;9.80;76.50;;;;;;5047157;28;20047;-78
2022/12/24 08:21:27;;;;;;;10.05;2.47;;;9.80;76.50;;;;;;5036698;28;20679;-78
2022/12/24 08:24:12;;;;;;;12.35;3.70;;;9.80;76.40;;;;;;5035325;28;20048;-78
2022/12/24 08:26:56;;;;;;;10.00;2.78;;;9.80;76.40;;;;;;5046377;28;20329;-77
2022/12/24 08:29:41;;;;;;;9.63;2.80;;;9.70;76.30;;;;;;5034699;28;20441;-78
2022/12/24 08:32:25;;;;;;;11.20;3.00;;;9.70;76.30;;;;;;5046976;28;20106;-78
2022/12/24 08:35:10;;;;;;;7.32;2.40;;;9.60;76.20;;;;;;5028574;28;20040;-79
2022/12/24 08:37:55;;;;;;;8.18;2.08;;;9.60;76.20;;;;;;5028088;28;20102;-78
2022/12/24 08:40:39;;;;;;;12.02;2.70;;;9.60;76.30;;;;;;5030857;28;20091;-77
2022/12/24 08:43:25;;;;;;;8.35;2.88;;;9.50;76.10;;;;;;5034439;28;20135;-78
2022/12/24 08:46:09;;;;;;;7.60;2.42;;;9.50;76.20;;;;;;5028676;28;20049;-78
2022/12/24 08:48:54;;;;;;;10.93;2.33;;;9.40;76.00;;;;;;5033134;28;20057;-79
2022/12/24 08:51:38;;;;;;;8.85;2.35;;;9.40;76.00;;;;;;5035531;28;20102;-79
2022/12/24 08:54:24;;;;;;;9.05;2.80;;;9.40;76.00;;;;;;5017834;28;20117;-78
2022/12/24 08:57:08;;;;;;;8.25;2.03;;;9.40;76.10;;;;;;5044311;28;20163;-79
2022/12/24 08:59:52;;;;;;;8.23;2.10;;;9.40;76.10;;;;;;5060959;28;20545;-79
2022/12/24 09:02:37;;;;;;;9.50;2.92;;;9.30;75.90;;;;;;5053520;28;20089;-78
2022/12/24 09:05:22;;;;;;;8.02;2.80;;;9.30;75.90;;;;;;5056231;28;20040;-78
2022/12/24 09:08:06;;;;;;;7.20;2.05;;;9.30;75.90;;;;;;5045644;28;20120;-77
2022/12/24 09:10:51;;;;;;;9.18;2.92;;;9.30;75.90;;;;;;5044027;28;20047;-77
2022/12/24 09:13:36;;;;;;;10.63;2.72;;;9.20;75.70;;;;;;5038795;28;20558;-76
2022/12/24 09:16:21;;;;;;;11.38;3.55;;;9.20;75.70;;;;;;5046830;28;20079;-76
2022/12/24 09:19:05;;;;;;;5.18;2.40;;;9.30;75.90;;;;;;5055402;28;20206;-77
2022/12/24 09:21:50;;;;;;;10.10;2.78;;;9.30;75.90;;;;;;5052658;28;20036;-76
2022/12/24 09:24:36;;;;;;;8.27;2.78;;;9.30;75.80;;;;;;5036516;28;20251;-77
2022/12/24 09:27:20;;;;;;;6.93;2.20;;;9.30;75.80;;;;;;5037274;28;20217;-77
2022/12/24 09:30:06;;;;;;;15.65;3.65;;;9.30;75.80;;;;;;5060680;28;20048;-78
2022/12/24 09:32:51;;;;;;;9.18;2.33;;;9.30;75.70;;;;;;5045839;28;20072;-76
2022/12/24 09:35:37;;;;;;;12.23;3.65;;;9.30;75.60;;;;;;5038690;28;20037;-77
2022/12/24 09:38:23;;;;;;;10.60;3.47;;;9.40;75.80;;;;;;5037878;28;20079;-78
2022/12/24 09:41:27;;;;;;;9.93;2.92;;;9.40;75.70;;;;;;5051392;28;20047;-79
2022/12/24 09:44:27;;;;;;;8.32;2.80;;;9.40;75.70;;;;;;5045900;28;20136;-76
2022/12/24 09:47:47;;;;;;;11.27;2.75;;;9.50;75.70;;;;;;5048745;28;20067;-75
2022/12/24 09:50:53;;;;;;;8.75;3.45;;;9.50;75.70;;;;;;5040985;28;20056;-76
2022/12/24 09:53:49;;;;;;;6.93;2.95;;;9.50;75.50;;;;;;5027910;28;20055;-76
2022/12/24 09:56:39;;;;;;;8.38;2.75;;;9.60;75.60;;;;;;5029406;28;20125;-76
2022/12/24 09:59:31;;;;;;;10.85;3.08;;;9.60;75.50;;;;;;5040193;28;20065;-76
2022/12/24 10:02:19;;;;;;;12.75;3.03;;;9.70;75.60;;;;;;5036377;28;20129;-76
2022/12/24 10:05:12;;;;;;;9.93;3.30;;;9.70;75.70;;;;;;5039428;28;20036;-76
2022/12/24 10:08:24;;;;;;;10.43;2.30;;;9.80;76.10;;;;;;5031094;28;20044;-77
2022/12/24 10:11:37;;;;;;;7.70;2.63;;;10.00;76.20;;;;;;5032973;28;20048;-78
2022/12/24 10:15:03;;;;;;;6.78;2.50;;;10.00;75.90;;;;;;5034543;28;20072;-76
2022/12/24 10:18:11;;;;;;;7.88;3.20;;;10.10;75.80;;;;;;5037096;28;20150;-76
2022/12/24 10:21:26;;;;;;;8.95;2.28;;;10.00;75.50;;;;;;5045374;28;20044;-77
2022/12/24 10:24:28;;;;;;;9.20;3.50;;;10.00;75.50;;;;;;5038653;28;20098;-76
2022/12/24 10:27:15;;;;;;;9.13;2.95;;;10.00;75.50;;;;;;5037382;28;20504;-76
2022/12/24 10:30:03;;;;;;;7.05;2.30;;;9.90;75.40;;;;;;5049957;28;20036;-76
2022/12/24 10:32:51;;;;;;;7.32;2.45;;;9.90;75.40;;;;;;5055113;28;20498;-77
2022/12/24 10:35:41;;;;;;;9.57;3.05;;;9.90;75.40;;;;;;5031798;28;20061;-77
2022/12/24 10:38:26;;;;;;;11.15;2.85;;;9.80;75.30;;;;;;5032235;28;20039;-77
2022/12/24 10:41:13;;;;;;;8.60;2.42;;;9.80;75.30;;;;;;5060614;28;20051;-76
2022/12/24 10:43:58;;;;;;;14.50;3.80;;;9.80;75.30;;;;;;5042213;28;20417;-77
2022/12/24 10:46:44;;;;;;;10.90;2.97;;;9.80;75.30;;;;;;5037611;28;20359;-77
2022/12/24 10:49:42;;;;;;;8.40;3.33;;;9.90;75.40;;;;;;5046830;28;20047;-77
2022/12/24 10:52:32;;;;;;;11.25;2.90;;;10.00;75.50;;;;;;5067727;28;20035;-78
2022/12/24 10:55:19;;;;;;;9.75;3.25;;;10.00;75.30;;;;;;5050127;28;20247;-77
2022/12/24 10:58:06;;;;;;;7.53;2.80;;;10.10;75.20;;;;;;5039067;28;20099;-77
2022/12/24 11:00:52;;;;;;;14.45;2.92;;;10.20;75.30;;;;;;5060720;28;20124;-78
2022/12/24 11:03:37;;;;;;;9.82;3.22;;;10.30;75.30;;;;;;5053086;28;20039;-75
2022/12/24 11:06:22;;;;;;;11.70;3.28;;;10.30;75.20;;;;;;5039605;28;20044;-78
2022/12/24 11:09:22;;;;;;;10.15;3.28;;;10.40;75.20;;;;;;5049715;28;20419;-75
2022/12/24 11:12:20;;;;;;;11.63;3.08;;;10.40;75.10;;;;;;5042191;28;20082;-78
2022/12/24 11:15:29;;;;;;;10.07;3.20;;;10.50;75.20;;;;;;5039688;28;20388;-76
2022/12/24 11:18:14;;;;;;;11.85;2.72;;;10.60;75.20;;;;;;5044130;28;20932;-77
2022/12/24 11:20:59;;;;;;;12.95;3.15;;;10.70;75.20;;;;;;5040262;28;20087;-77
2022/12/24 11:23:57;;;;;;;10.95;3.08;;;10.80;75.10;;;;;;5039517;28;20223;-79
2022/12/24 11:26:43;;;;;;;9.93;3.28;;;10.90;75.10;;;;;;5048237;28;20112;-78
2022/12/24 11:29:28;;;;;;;10.57;2.45;;;11.00;75.10;;;;;;5036718;28;20350;-83
2022/12/24 11:32:22;;;;;;;9.48;2.25;;;11.10;75.10;;;;;;5035633;28;20067;-85
2022/12/24 11:35:14;;;;;;;10.15;2.83;;;11.20;75.20;;;;;;5045609;28;20047;-84
2022/12/24 11:38:02;;;;;;;9.93;2.70;;;11.30;75.20;;;;;;5056101;28;20157;-87
2022/12/24 11:40:49;;;;;;;10.68;2.95;;;11.30;75.10;;;;;;5035583;28;20448;-88
2022/12/24 11:43:44;;;;;;;10.90;2.83;;;11.40;75.20;;;;;;5065907;28;20472;-86
2022/12/24 11:46:37;;;;;;;14.18;3.50;;;11.40;75.10;;;;;;5046864;28;20404;-85
2022/12/24 11:49:31;;;;;;;15.82;3.95;;;11.60;75.40;;;;;;5057622;28;20063;-85
2022/12/24 11:52:21;;;;;;;13.65;3.30;;;11.60;75.30;;;;;;5034648;28;20145;-84
2022/12/24 11:55:28;;;;;;;14.85;3.35;;;11.70;75.30;;;;;;5031810;28;20433;-81
2022/12/24 11:59:01;;;;;;;11.25;2.85;;;11.70;75.20;;;;;;5037092;28;20495;-79
2022/12/24 12:01:57;;;;;;;14.43;3.05;;;11.80;75.50;;;;;;5047807;28;20442;-85
2022/12/24 12:04:45;;;;;;;14.63;3.80;;;12.00;75.90;;;;;;5036871;28;20048;-77
2022/12/24 12:07:34;;;;;;;11.35;2.88;;;12.10;76.10;;;;;;5042562;28;20850;-77
2022/12/24 12:10:26;;;;;;;15.75;3.17;;;12.40;76.30;;;;;;5053832;28;20048;-78
2022/12/24 12:13:14;;;;;;;17.98;4.13;;;12.60;76.40;;;;;;5051841;28;20049;-78
2022/12/24 12:16:20;;;;;;;14.55;2.97;;;12.80;76.30;;;;;;5018001;28;20514;-79
2022/12/24 12:19:07;;;;;;;17.80;3.15;;;12.90;76.40;;;;;;5054117;28;20040;-79
2022/12/24 12:21:52;;;;;;;12.98;3.60;;;13.00;76.30;;;;;;5053298;28;20047;-78
2022/12/24 12:24:42;;;;;;;12.75;3.75;;;13.10;76.40;;;;;;5053508;28;20440;-78
2022/12/24 12:27:32;;;;;;;13.27;3.58;;;13.20;76.40;;;;;;5054244;28;20079;-79
2022/12/24 12:30:19;;;;;;;18.13;4.45;;;13.30;76.50;;;;;;5047538;28;20808;-80
2022/12/24 12:33:36;;;;;;;20.23;6.72;;;13.40;76.70;;;;;;5035365;28;20107;-80
2022/12/24 12:36:35;;;;;;;24.05;7.95;;;13.50;77.10;;;;;;5034962;28;20094;-79
2022/12/24 12:39:19;;;;;;;26.60;7.72;;;13.60;77.10;;;;;;5056121;28;20561;-79
2022/12/24 12:42:16;;;;;;;22.90;8.80;;;13.80;77.50;;;;;;5038275;28;20036;-86
2022/12/24 12:45:25;;;;;;;28.10;7.20;;;13.90;77.80;;;;;;5026815;28;20208;-94
2022/12/24 12:48:19;;;;;;;19.38;6.00;;;14.00;78.00;;;;;;5053199;28;20099;-92
2022/12/24 12:51:12;;;;;;;18.00;6.28;;;14.00;78.00;;;;;;5047014;28;20412;-93
2022/12/24 12:54:14;;;;;;;15.55;4.50;;;14.10;78.00;;;;;;5034775;28;20117;-92
2022/12/24 12:57:07;;;;;;;21.08;5.00;;;14.10;78.00;;;;;;5048538;28;20052;-94
2022/12/24 13:00:03;;;;;;;10.15;4.30;;;14.10;77.90;;;;;;5039284;28;20197;-90
2022/12/24 13:03:29;;;;;;;14.45;4.05;;;14.10;77.80;;;;;;5060640;28;20043;-87
2022/12/24 13:06:36;;;;;;;19.48;4.63;;;14.10;78.00;;;;;;5037699;28;20040;-84
2022/12/24 13:09:42;;;;;;;15.13;4.65;;;14.30;78.30;;;;;;5030028;28;20097;-83
2022/12/24 13:12:27;;;;;;;15.95;5.25;;;14.50;78.50;;;;;;5047863;28;20044;-82
2022/12/24 13:15:37;;;;;;;16.38;3.95;;;14.70;78.40;;;;;;5039995;28;21661;-79
2022/12/24 13:18:27;;;;;;;13.30;5.03;;;14.90;78.10;;;;;;5051446;28;20083;-78
2022/12/24 13:21:19;;;;;;;13.85;5.30;;;15.20;78.00;;;;;;5053411;28;20043;-78
2022/12/24 13:24:26;;;;;;;13.10;4.68;;;15.30;77.70;;;;;;5043392;28;20072;-78
2022/12/24 13:27:19;;;;;;;11.85;3.67;;;15.40;77.50;;;;;;5057212;28;20479;-78
2022/12/24 13:30:37;;;;;;;13.43;4.60;;;15.50;77.50;;;;;;5058471;28;20225;-78
2022/12/24 13:33:40;;;;;;;17.95;5.57;;;15.50;77.50;;;;;;5054578;28;20051;-77
2022/12/24 13:36:45;;;;;;;14.63;5.07;;;15.50;77.40;;;;;;5024598;28;20069;-78
2022/12/24 13:40:02;;;;;;;13.75;4.63;;;15.50;77.50;;;;;;5038837;28;20075;-79
2022/12/24 13:43:01;;;;;;;12.48;3.97;;;15.50;77.50;;;;;;5044265;28;20099;-79
2022/12/24 13:45:49;;;;;;;18.67;4.38;;;15.50;77.40;;;;;;5033252;28;20047;-79
2022/12/24 13:48:33;;;;;;;15.32;3.85;;;15.50;77.40;;;;;;5044873;28;20068;-80
2022/12/24 13:51:24;;;;;;;10.80;3.47;;;15.50;77.30;;;;;;5052359;28;20047;-79
2022/12/24 13:54:12;;;;;;;11.93;4.20;;;15.50;77.20;;;;;;5048560;28;20136;-79
2022/12/24 13:56:59;;;;;;;13.05;3.08;;;15.60;77.20;;;;;;5048185;28;20076;-79
2022/12/24 13:59:43;;;;;;;12.85;4.25;;;15.60;77.10;;;;;;5065582;28;20490;-84
2022/12/24 14:02:34;;;;;;;16.67;4.15;;;15.60;77.00;;;;;;5064722;28;20043;-80
2022/12/24 14:05:38;;;;;;;13.07;3.20;;;15.60;76.90;;;;;;5056966;28;20044;-80
2022/12/24 14:08:23;;;;;;;14.32;4.55;;;15.60;76.70;;;;;;5052192;28;20048;-83
2022/12/24 14:11:14;;;;;;;10.70;3.08;;;15.60;76.80;;;;;;5053526;28;20136;-86
2022/12/24 14:14:02;;;;;;;17.15;3.25;;;15.60;76.70;;;;;;5059988;28;20063;-82
2022/12/24 14:16:50;;;;;;;15.43;5.45;;;15.60;76.60;;;;;;5071502;28;20493;-81
2022/12/24 14:19:37;;;;;;;14.60;2.83;;;15.60;76.50;;;;;;5058845;28;20056;-80
2022/12/24 14:22:25;;;;;;;11.93;3.00;;;15.60;76.40;;;;;;5053969;28;20117;-79
2022/12/24 14:25:22;;;;;;;10.32;3.08;;;15.60;76.40;;;;;;5064411;28;20129;-80
2022/12/24 14:28:17;;;;;;;10.93;2.67;;;15.60;76.20;;;;;;5050701;28;20218;-79
2022/12/24 14:31:04;;;;;;;13.63;3.97;;;15.60;76.20;;;;;;5059577;28;20089;-78
2022/12/24 14:33:49;;;;;;;12.45;3.75;;;15.60;76.10;;;;;;5056432;28;20175;-78
2022/12/24 14:36:35;;;;;;;10.82;2.60;;;15.50;75.90;;;;;;5044741;28;20068;-84
2022/12/24 14:39:31;;;;;;;14.68;3.25;;;15.50;75.90;;;;;;5037179;28;20058;-82
2022/12/24 14:42:48;;;;;;;11.30;3.28;;;15.50;75.90;;;;;;5029009;28;20379;-85
2022/12/24 14:45:45;;;;;;;9.68;3.45;;;15.50;75.80;;;;;;5032945;28;20491;-83
2022/12/24 14:48:55;;;;;;;7.47;1.90;;;15.40;75.60;;;;;;5038807;28;20044;-83
2022/12/24 14:51:58;;;;;;;12.82;3.60;;;15.40;75.60;;;;;;5021679;28;20079;-85